sensor_id;sensor_type;location;lat;lon;timestamp;P1;durP1;ratioP1;P2;durP2;ratioP2
6997;SDS011;3539;47.982;12.238;2022-09-13T00:01:31;4.13;;;3.73;;
6997;SDS011;3539;47.982;12.238;2022-09-13T00:04:00;4.03;;;3.43;;
6997;SDS011;3539;47.982;12.238;2022-09-13T00:06:28;3.80;;;3.50;;
6997;SDS011;3539;47.982;12.238;2022-09-13T00:08:55;4.00;;;3.40;;
6997;SDS011;3539;47.982;12.238;2022-09-13T00:11:22;3.93;;;3.63;;
6997;SDS011;3539;47.982;12.238;2022-09-13T00:13:50;3.80;;;3.50;;
6997;SDS011;3539;47.982;12.238;2022-09-13T00:16:18;3.70;;;3.40;;
6997;SDS011;3539;47.982;12.238;2022-09-13T00:18:47;3.60;;;3.30;;
6997;SDS011;3539;47.982;12.238;2022-09-13T00:21:16;3.90;;;3.50;;
6997;SDS011;3539;47.982;12.238;2022-09-13T00:23:44;3.13;;;2.90;;
6997;SDS011;3539;47.982;12.238;2022-09-13T00:26:12;3.67;;;3.37;;
6997;SDS011;3539;47.982;12.238;2022-09-13T00:28:40;4.10;;;3.40;;
6997;SDS011;3539;47.982;12.238;2022-09-13T00:31:09;3.73;;;3.43;;
6997;SDS011;3539;47.982;12.238;2022-09-13T00:33:36;3.90;;;3.50;;
6997;SDS011;3539;47.982;12.238;2022-09-13T00:36:04;4.20;;;3.90;;
6997;SDS011;3539;47.982;12.238;2022-09-13T00:38:33;4.37;;;3.67;;
6997;SDS011;3539;47.982;12.238;2022-09-13T00:41:00;3.60;;;3.30;;
6997;SDS011;3539;47.982;12.238;2022-09-13T00:43:45;3.37;;;2.93;;
6997;SDS011;3539;47.982;12.238;2022-09-13T00:46:15;2.93;;;2.73;;
6997;SDS011;3539;47.982;12.238;2022-09-13T00:48:45;3.57;;;2.80;;
6997;SDS011;3539;47.982;12.238;2022-09-13T00:51:12;3.13;;;2.70;;
6997;SDS011;3539;47.982;12.238;2022-09-13T00:53:42;2.97;;;2.77;;
6997;SDS011;3539;47.982;12.238;2022-09-13T00:56:12;3.53;;;3.20;;
6997;SDS011;3539;47.982;12.238;2022-09-13T00:58:42;3.63;;;3.33;;
6997;SDS011;3539;47.982;12.238;2022-09-13T01:01:12;4.63;;;3.13;;
6997;SDS011;3539;47.982;12.238;2022-09-13T01:03:40;3.67;;;3.37;;
6997;SDS011;3539;47.982;12.238;2022-09-13T01:06:10;3.50;;;3.20;;
6997;SDS011;3539;47.982;12.238;2022-09-13T01:08:38;4.07;;;3.40;;
6997;SDS011;3539;47.982;12.238;2022-09-13T01:11:09;3.40;;;3.10;;
6997;SDS011;3539;47.982;12.238;2022-09-13T01:13:38;2.80;;;2.60;;
6997;SDS011;3539;47.982;12.238;2022-09-13T01:16:05;4.63;;;3.10;;
6997;SDS011;3539;47.982;12.238;2022-09-13T01:18:32;3.33;;;3.07;;
6997;SDS011;3539;47.982;12.238;2022-09-13T01:21:05;3.23;;;2.97;;
6997;SDS011;3539;47.982;12.238;2022-09-13T01:23:55;3.80;;;2.87;;
6997;SDS011;3539;47.982;12.238;2022-09-13T01:26:38;6.13;;;2.90;;
6997;SDS011;3539;47.982;12.238;2022-09-13T01:29:26;3.43;;;3.13;;
6997;SDS011;3539;47.982;12.238;2022-09-13T01:32:07;3.20;;;3.00;;
6997;SDS011;3539;47.982;12.238;2022-09-13T01:34:39;3.43;;;3.13;;
6997;SDS011;3539;47.982;12.238;2022-09-13T01:37:24;3.37;;;3.07;;
6997;SDS011;3539;47.982;12.238;2022-09-13T01:40:02;3.90;;;2.83;;
6997;SDS011;3539;47.982;12.238;2022-09-13T01:42:35;4.43;;;3.07;;
6997;SDS011;3539;47.982;12.238;2022-09-13T01:45:14;3.13;;;2.93;;
6997;SDS011;3539;47.982;12.238;2022-09-13T01:47:49;3.50;;;3.20;;
6997;SDS011;3539;47.982;12.238;2022-09-13T01:50:20;3.53;;;2.90;;
6997;SDS011;3539;47.982;12.238;2022-09-13T01:52:52;3.70;;;3.10;;
6997;SDS011;3539;47.982;12.238;2022-09-13T01:55:28;2.90;;;2.60;;
6997;SDS011;3539;47.982;12.238;2022-09-13T01:58:02;3.23;;;2.93;;
6997;SDS011;3539;47.982;12.238;2022-09-13T02:00:34;3.37;;;3.07;;
6997;SDS011;3539;47.982;12.238;2022-09-13T02:03:05;3.20;;;2.90;;
6997;SDS011;3539;47.982;12.238;2022-09-13T02:05:34;2.90;;;2.70;;
6997;SDS011;3539;47.982;12.238;2022-09-13T02:08:05;3.03;;;2.73;;
6997;SDS011;3539;47.982;12.238;2022-09-13T02:10:37;2.97;;;2.43;;
6997;SDS011;3539;47.982;12.238;2022-09-13T02:13:07;3.10;;;2.80;;
6997;SDS011;3539;47.982;12.238;2022-09-13T02:15:37;2.80;;;2.60;;
6997;SDS011;3539;47.982;12.238;2022-09-13T02:18:08;3.57;;;2.73;;
6997;SDS011;3539;47.982;12.238;2022-09-13T02:20:37;3.90;;;2.90;;
6997;SDS011;3539;47.982;12.238;2022-09-13T02:23:07;3.20;;;2.90;;
6997;SDS011;3539;47.982;12.238;2022-09-13T02:25:37;2.77;;;2.57;;
6997;SDS011;3539;47.982;12.238;2022-09-13T02:28:06;2.90;;;2.50;;
6997;SDS011;3539;47.982;12.238;2022-09-13T02:30:36;3.33;;;2.40;;
6997;SDS011;3539;47.982;12.238;2022-09-13T02:33:06;3.53;;;2.70;;
6997;SDS011;3539;47.982;12.238;2022-09-13T02:35:37;2.60;;;2.40;;
6997;SDS011;3539;47.982;12.238;2022-09-13T02:38:06;3.00;;;2.70;;
6997;SDS011;3539;47.982;12.238;2022-09-13T02:40:38;2.47;;;2.27;;
6997;SDS011;3539;47.982;12.238;2022-09-13T02:43:09;2.63;;;2.43;;
6997;SDS011;3539;47.982;12.238;2022-09-13T02:45:40;2.67;;;2.30;;
6997;SDS011;3539;47.982;12.238;2022-09-13T02:48:13;2.70;;;2.43;;
6997;SDS011;3539;47.982;12.238;2022-09-13T02:50:45;3.07;;;2.77;;
6997;SDS011;3539;47.982;12.238;2022-09-13T02:53:19;2.90;;;2.70;;
6997;SDS011;3539;47.982;12.238;2022-09-13T02:55:52;3.50;;;3.20;;
6997;SDS011;3539;47.982;12.238;2022-09-13T02:58:24;3.50;;;3.20;;
6997;SDS011;3539;47.982;12.238;2022-09-13T03:00:55;3.30;;;3.00;;
6997;SDS011;3539;47.982;12.238;2022-09-13T03:03:23;2.83;;;2.63;;
6997;SDS011;3539;47.982;12.238;2022-09-13T03:05:49;2.80;;;2.60;;
6997;SDS011;3539;47.982;12.238;2022-09-13T03:08:18;2.90;;;2.67;;
6997;SDS011;3539;47.982;12.238;2022-09-13T03:10:48;2.90;;;2.60;;
6997;SDS011;3539;47.982;12.238;2022-09-13T03:13:34;2.90;;;2.70;;
6997;SDS011;3539;47.982;12.238;2022-09-13T03:16:18;3.20;;;2.80;;
6997;SDS011;3539;47.982;12.238;2022-09-13T03:19:00;3.13;;;2.50;;
6997;SDS011;3539;47.982;12.238;2022-09-13T03:21:38;2.80;;;2.60;;
6997;SDS011;3539;47.982;12.238;2022-09-13T03:24:14;2.77;;;2.57;;
6997;SDS011;3539;47.982;12.238;2022-09-13T03:26:44;2.70;;;2.50;;
6997;SDS011;3539;47.982;12.238;2022-09-13T03:29:24;2.50;;;2.30;;
6997;SDS011;3539;47.982;12.238;2022-09-13T03:31:59;2.97;;;2.53;;
6997;SDS011;3539;47.982;12.238;2022-09-13T03:34:35;3.23;;;2.93;;
6997;SDS011;3539;47.982;12.238;2022-09-13T03:37:07;3.23;;;2.77;;
6997;SDS011;3539;47.982;12.238;2022-09-13T03:39:40;3.30;;;3.00;;
6997;SDS011;3539;47.982;12.238;2022-09-13T03:42:10;3.37;;;2.90;;
6997;SDS011;3539;47.982;12.238;2022-09-13T03:44:39;3.80;;;3.00;;
6997;SDS011;3539;47.982;12.238;2022-09-13T03:47:06;3.10;;;2.90;;
6997;SDS011;3539;47.982;12.238;2022-09-13T03:49:35;3.33;;;3.03;;
6997;SDS011;3539;47.982;12.238;2022-09-13T03:52:03;3.40;;;3.10;;
6997;SDS011;3539;47.982;12.238;2022-09-13T03:54:30;3.10;;;2.90;;
6997;SDS011;3539;47.982;12.238;2022-09-13T03:57:07;4.13;;;3.30;;
6997;SDS011;3539;47.982;12.238;2022-09-13T03:59:36;2.93;;;2.70;;
6997;SDS011;3539;47.982;12.238;2022-09-13T04:02:03;4.67;;;2.50;;
6997;SDS011;3539;47.982;12.238;2022-09-13T04:04:30;2.60;;;2.40;;
6997;SDS011;3539;47.982;12.238;2022-09-13T04:07:01;3.13;;;2.67;;
6997;SDS011;3539;47.982;12.238;2022-09-13T04:09:28;2.50;;;2.30;;
6997;SDS011;3539;47.982;12.238;2022-09-13T04:11:55;2.83;;;2.63;;
6997;SDS011;3539;47.982;12.238;2022-09-13T04:14:22;5.70;;;2.80;;
6997;SDS011;3539;47.982;12.238;2022-09-13T04:16:51;3.10;;;2.90;;
6997;SDS011;3539;47.982;12.238;2022-09-13T04:19:18;4.13;;;3.03;;
6997;SDS011;3539;47.982;12.238;2022-09-13T04:21:47;3.40;;;3.10;;
6997;SDS011;3539;47.982;12.238;2022-09-13T04:24:14;3.30;;;3.00;;
6997;SDS011;3539;47.982;12.238;2022-09-13T04:26:41;3.17;;;2.87;;
6997;SDS011;3539;47.982;12.238;2022-09-13T04:29:09;4.10;;;2.55;;
6997;SDS011;3539;47.982;12.238;2022-09-13T04:31:36;3.47;;;2.77;;
6997;SDS011;3539;47.982;12.238;2022-09-13T04:34:03;3.27;;;2.60;;
6997;SDS011;3539;47.982;12.238;2022-09-13T04:36:30;3.30;;;2.40;;
6997;SDS011;3539;47.982;12.238;2022-09-13T04:38:58;3.00;;;2.50;;
6997;SDS011;3539;47.982;12.238;2022-09-13T04:41:25;3.50;;;2.67;;
6997;SDS011;3539;47.982;12.238;2022-09-13T04:43:52;2.90;;;2.70;;
6997;SDS011;3539;47.982;12.238;2022-09-13T04:46:19;5.20;;;3.37;;
6997;SDS011;3539;47.982;12.238;2022-09-13T04:48:47;4.17;;;3.60;;
6997;SDS011;3539;47.982;12.238;2022-09-13T04:51:14;3.87;;;3.57;;
6997;SDS011;3539;47.982;12.238;2022-09-13T04:53:41;4.30;;;4.00;;
6997;SDS011;3539;47.982;12.238;2022-09-13T04:56:10;3.90;;;3.60;;
6997;SDS011;3539;47.982;12.238;2022-09-13T04:58:39;3.33;;;3.10;;
6997;SDS011;3539;47.982;12.238;2022-09-13T05:01:06;2.70;;;2.50;;
6997;SDS011;3539;47.982;12.238;2022-09-13T05:03:34;3.40;;;2.53;;
6997;SDS011;3539;47.982;12.238;2022-09-13T05:06:01;2.60;;;2.40;;
6997;SDS011;3539;47.982;12.238;2022-09-13T05:08:29;3.47;;;2.70;;
6997;SDS011;3539;47.982;12.238;2022-09-13T05:10:56;3.10;;;2.80;;
6997;SDS011;3539;47.982;12.238;2022-09-13T05:13:24;2.97;;;2.70;;
6997;SDS011;3539;47.982;12.238;2022-09-13T05:15:53;3.17;;;2.90;;
6997;SDS011;3539;47.982;12.238;2022-09-13T05:18:20;3.67;;;2.70;;
6997;SDS011;3539;47.982;12.238;2022-09-13T05:20:47;2.97;;;2.60;;
6997;SDS011;3539;47.982;12.238;2022-09-13T05:23:14;3.37;;;3.00;;
6997;SDS011;3539;47.982;12.238;2022-09-13T05:25:41;2.87;;;2.67;;
6997;SDS011;3539;47.982;12.238;2022-09-13T05:28:07;2.90;;;2.70;;
6997;SDS011;3539;47.982;12.238;2022-09-13T05:30:35;3.43;;;2.80;;
6997;SDS011;3539;47.982;12.238;2022-09-13T05:33:02;3.20;;;3.00;;
6997;SDS011;3539;47.982;12.238;2022-09-13T05:35:29;6.73;;;3.40;;
6997;SDS011;3539;47.982;12.238;2022-09-13T05:37:56;4.00;;;3.30;;
6997;SDS011;3539;47.982;12.238;2022-09-13T05:40:22;3.40;;;3.10;;
6997;SDS011;3539;47.982;12.238;2022-09-13T05:42:51;4.10;;;3.27;;
6997;SDS011;3539;47.982;12.238;2022-09-13T05:45:18;3.37;;;3.07;;
6997;SDS011;3539;47.982;12.238;2022-09-13T05:47:49;3.50;;;3.20;;
6997;SDS011;3539;47.982;12.238;2022-09-13T05:50:16;3.73;;;3.30;;
6997;SDS011;3539;47.982;12.238;2022-09-13T05:52:50;3.83;;;3.40;;
6997;SDS011;3539;47.982;12.238;2022-09-13T05:55:17;4.33;;;3.40;;
6997;SDS011;3539;47.982;12.238;2022-09-13T05:57:43;5.50;;;3.50;;
6997;SDS011;3539;47.982;12.238;2022-09-13T06:00:13;5.43;;;4.07;;
6997;SDS011;3539;47.982;12.238;2022-09-13T06:02:40;6.70;;;4.13;;
6997;SDS011;3539;47.982;12.238;2022-09-13T06:05:09;4.10;;;3.70;;
6997;SDS011;3539;47.982;12.238;2022-09-13T06:07:38;4.47;;;4.07;;
6997;SDS011;3539;47.982;12.238;2022-09-13T06:10:05;4.13;;;3.80;;
6997;SDS011;3539;47.982;12.238;2022-09-13T06:12:32;5.77;;;3.70;;
6997;SDS011;3539;47.982;12.238;2022-09-13T06:14:59;4.17;;;3.40;;
6997;SDS011;3539;47.982;12.238;2022-09-13T06:17:26;3.87;;;3.57;;
6997;SDS011;3539;47.982;12.238;2022-09-13T06:19:52;4.00;;;3.70;;
6997;SDS011;3539;47.982;12.238;2022-09-13T06:22:22;4.53;;;3.60;;
6997;SDS011;3539;47.982;12.238;2022-09-13T06:24:48;4.40;;;4.00;;
6997;SDS011;3539;47.982;12.238;2022-09-13T06:27:15;4.17;;;3.83;;
6997;SDS011;3539;47.982;12.238;2022-09-13T06:29:42;4.97;;;4.50;;
6997;SDS011;3539;47.982;12.238;2022-09-13T06:32:09;4.63;;;4.23;;
6997;SDS011;3539;47.982;12.238;2022-09-13T06:34:36;4.33;;;4.00;;
6997;SDS011;3539;47.982;12.238;2022-09-13T06:37:02;4.40;;;4.00;;
6997;SDS011;3539;47.982;12.238;2022-09-13T06:39:30;6.27;;;3.90;;
6997;SDS011;3539;47.982;12.238;2022-09-13T06:41:58;4.27;;;3.83;;
6997;SDS011;3539;47.982;12.238;2022-09-13T06:44:25;5.27;;;4.30;;
6997;SDS011;3539;47.982;12.238;2022-09-13T06:46:51;4.90;;;4.40;;
6997;SDS011;3539;47.982;12.238;2022-09-13T06:49:18;5.63;;;4.80;;
6997;SDS011;3539;47.982;12.238;2022-09-13T06:51:45;5.50;;;4.83;;
6997;SDS011;3539;47.982;12.238;2022-09-13T06:54:12;6.93;;;5.60;;
6997;SDS011;3539;47.982;12.238;2022-09-13T06:56:40;5.73;;;5.13;;
6997;SDS011;3539;47.982;12.238;2022-09-13T06:59:08;5.90;;;5.27;;
6997;SDS011;3539;47.982;12.238;2022-09-13T07:01:36;5.90;;;5.30;;
6997;SDS011;3539;47.982;12.238;2022-09-13T07:04:04;6.07;;;4.77;;
6997;SDS011;3539;47.982;12.238;2022-09-13T07:06:33;5.27;;;4.77;;
6997;SDS011;3539;47.982;12.238;2022-09-13T07:09:01;5.87;;;5.27;;
6997;SDS011;3539;47.982;12.238;2022-09-13T07:11:33;5.03;;;4.53;;
6997;SDS011;3539;47.982;12.238;2022-09-13T07:14:02;6.47;;;4.80;;
6997;SDS011;3539;47.982;12.238;2022-09-13T07:16:31;4.50;;;4.10;;
6997;SDS011;3539;47.982;12.238;2022-09-13T07:18:59;4.97;;;4.17;;
6997;SDS011;3539;47.982;12.238;2022-09-13T07:21:27;4.80;;;4.30;;
6997;SDS011;3539;47.982;12.238;2022-09-13T07:23:55;5.47;;;4.30;;
6997;SDS011;3539;47.982;12.238;2022-09-13T07:26:22;5.33;;;4.37;;
6997;SDS011;3539;47.982;12.238;2022-09-13T07:28:50;4.90;;;4.50;;
6997;SDS011;3539;47.982;12.238;2022-09-13T07:31:20;5.20;;;4.77;;
6997;SDS011;3539;47.982;12.238;2022-09-13T07:33:49;5.17;;;4.67;;
6997;SDS011;3539;47.982;12.238;2022-09-13T07:36:18;5.77;;;4.37;;
6997;SDS011;3539;47.982;12.238;2022-09-13T07:38:45;4.77;;;4.37;;
6997;SDS011;3539;47.982;12.238;2022-09-13T07:41:13;4.60;;;4.20;;
6997;SDS011;3539;47.982;12.238;2022-09-13T07:43:41;5.00;;;4.50;;
6997;SDS011;3539;47.982;12.238;2022-09-13T07:46:08;4.67;;;4.03;;
6997;SDS011;3539;47.982;12.238;2022-09-13T07:48:38;5.20;;;4.30;;
6997;SDS011;3539;47.982;12.238;2022-09-13T07:51:06;4.27;;;3.90;;
6997;SDS011;3539;47.982;12.238;2022-09-13T07:53:34;4.77;;;4.30;;
6997;SDS011;3539;47.982;12.238;2022-09-13T07:56:02;4.33;;;3.60;;
6997;SDS011;3539;47.982;12.238;2022-09-13T07:58:29;4.30;;;3.90;;
6997;SDS011;3539;47.982;12.238;2022-09-13T08:00:57;3.70;;;3.40;;
6997;SDS011;3539;47.982;12.238;2022-09-13T08:03:27;3.93;;;3.63;;
6997;SDS011;3539;47.982;12.238;2022-09-13T08:05:55;4.13;;;3.70;;
6997;SDS011;3539;47.982;12.238;2022-09-13T08:08:22;4.40;;;3.73;;
6997;SDS011;3539;47.982;12.238;2022-09-13T08:10:49;3.63;;;3.37;;
6997;SDS011;3539;47.982;12.238;2022-09-13T08:13:15;4.00;;;3.47;;
6997;SDS011;3539;47.982;12.238;2022-09-13T08:15:42;5.60;;;3.67;;
6997;SDS011;3539;47.982;12.238;2022-09-13T08:18:09;4.43;;;3.20;;
6997;SDS011;3539;47.982;12.238;2022-09-13T08:20:36;3.60;;;3.27;;
6997;SDS011;3539;47.982;12.238;2022-09-13T08:23:05;3.47;;;3.17;;
6997;SDS011;3539;47.982;12.238;2022-09-13T08:25:32;3.47;;;2.33;;
6997;SDS011;3539;47.982;12.238;2022-09-13T08:27:59;2.40;;;2.20;;
6997;SDS011;3539;47.982;12.238;2022-09-13T08:30:26;2.67;;;2.47;;
6997;SDS011;3539;47.982;12.238;2022-09-13T08:32:57;3.50;;;2.57;;
6997;SDS011;3539;47.982;12.238;2022-09-13T08:35:24;3.43;;;3.00;;
6997;SDS011;3539;47.982;12.238;2022-09-13T08:37:51;4.77;;;2.33;;
6997;SDS011;3539;47.982;12.238;2022-09-13T08:40:19;2.60;;;2.40;;
6997;SDS011;3539;47.982;12.238;2022-09-13T08:42:48;3.00;;;2.57;;
6997;SDS011;3539;47.982;12.238;2022-09-13T08:45:17;3.50;;;2.47;;
6997;SDS011;3539;47.982;12.238;2022-09-13T08:47:46;3.33;;;2.20;;
6997;SDS011;3539;47.982;12.238;2022-09-13T08:50:16;2.40;;;2.20;;
6997;SDS011;3539;47.982;12.238;2022-09-13T08:52:50;3.60;;;2.10;;
6997;SDS011;3539;47.982;12.238;2022-09-13T08:55:26;3.27;;;2.00;;
6997;SDS011;3539;47.982;12.238;2022-09-13T08:58:00;1.90;;;1.80;;
6997;SDS011;3539;47.982;12.238;2022-09-13T09:00:34;3.57;;;1.80;;
6997;SDS011;3539;47.982;12.238;2022-09-13T09:03:10;1.70;;;1.60;;
6997;SDS011;3539;47.982;12.238;2022-09-13T09:05:43;3.30;;;1.73;;
6997;SDS011;3539;47.982;12.238;2022-09-13T09:08:14;2.77;;;1.77;;
6997;SDS011;3539;47.982;12.238;2022-09-13T09:10:52;2.13;;;1.80;;
6997;SDS011;3539;47.982;12.238;2022-09-13T09:13:23;3.17;;;1.60;;
6997;SDS011;3539;47.982;12.238;2022-09-13T09:15:54;3.67;;;1.80;;
6997;SDS011;3539;47.982;12.238;2022-09-13T09:18:23;3.00;;;1.93;;
6997;SDS011;3539;47.982;12.238;2022-09-13T09:20:51;3.40;;;1.83;;
6997;SDS011;3539;47.982;12.238;2022-09-13T09:23:21;1.73;;;1.63;;
6997;SDS011;3539;47.982;12.238;2022-09-13T09:26:09;2.57;;;2.00;;
6997;SDS011;3539;47.982;12.238;2022-09-13T09:28:40;2.77;;;1.90;;
6997;SDS011;3539;47.982;12.238;2022-09-13T09:31:07;3.07;;;2.00;;
6997;SDS011;3539;47.982;12.238;2022-09-13T09:33:40;3.40;;;2.20;;
6997;SDS011;3539;47.982;12.238;2022-09-13T09:36:30;2.27;;;1.93;;
6997;SDS011;3539;47.982;12.238;2022-09-13T09:39:03;4.27;;;2.23;;
6997;SDS011;3539;47.982;12.238;2022-09-13T09:41:32;2.27;;;1.80;;
6997;SDS011;3539;47.982;12.238;2022-09-13T09:44:03;1.90;;;1.70;;
6997;SDS011;3539;47.982;12.238;2022-09-13T09:46:36;2.33;;;2.13;;
6997;SDS011;3539;47.982;12.238;2022-09-13T09:49:05;3.73;;;1.90;;
6997;SDS011;3539;47.982;12.238;2022-09-13T09:51:59;2.80;;;1.97;;
6997;SDS011;3539;47.982;12.238;2022-09-13T09:54:31;2.17;;;2.00;;
6997;SDS011;3539;47.982;12.238;2022-09-13T09:57:04;2.20;;;2.00;;
6997;SDS011;3539;47.982;12.238;2022-09-13T09:59:33;1.80;;;1.70;;
6997;SDS011;3539;47.982;12.238;2022-09-13T10:02:01;2.70;;;1.80;;
6997;SDS011;3539;47.982;12.238;2022-09-13T10:04:40;2.27;;;1.53;;
6997;SDS011;3539;47.982;12.238;2022-09-13T10:07:08;1.73;;;1.40;;
6997;SDS011;3539;47.982;12.238;2022-09-13T10:09:56;2.60;;;1.60;;
6997;SDS011;3539;47.982;12.238;2022-09-13T10:12:30;1.40;;;1.27;;
6997;SDS011;3539;47.982;12.238;2022-09-13T10:17:41;1.50;;;1.30;;
6997;SDS011;3539;47.982;12.238;2022-09-13T10:20:18;1.53;;;1.10;;
6997;SDS011;3539;47.982;12.238;2022-09-13T10:22:48;1.17;;;1.10;;
6997;SDS011;3539;47.982;12.238;2022-09-13T10:25:36;1.87;;;1.20;;
6997;SDS011;3539;47.982;12.238;2022-09-13T10:28:05;1.30;;;1.20;;
6997;SDS011;3539;47.982;12.238;2022-09-13T10:30:37;5.10;;;1.33;;
6997;SDS011;3539;47.982;12.238;2022-09-13T10:33:08;1.47;;;1.37;;
6997;SDS011;3539;47.982;12.238;2022-09-13T10:35:49;1.70;;;1.40;;
6997;SDS011;3539;47.982;12.238;2022-09-13T10:38:19;4.97;;;1.40;;
6997;SDS011;3539;47.982;12.238;2022-09-13T10:40:51;1.50;;;1.30;;
6997;SDS011;3539;47.982;12.238;2022-09-13T10:43:20;1.40;;;1.30;;
6997;SDS011;3539;47.982;12.238;2022-09-13T10:45:48;1.53;;;1.20;;
6997;SDS011;3539;47.982;12.238;2022-09-13T10:48:16;1.40;;;1.30;;
6997;SDS011;3539;47.982;12.238;2022-09-13T10:50:58;1.40;;;1.30;;
6997;SDS011;3539;47.982;12.238;2022-09-13T10:53:34;3.00;;;1.33;;
6997;SDS011;3539;47.982;12.238;2022-09-13T10:56:02;3.63;;;1.30;;
6997;SDS011;3539;47.982;12.238;2022-09-13T10:58:31;1.20;;;1.10;;
6997;SDS011;3539;47.982;12.238;2022-09-13T11:01:05;2.47;;;1.20;;
6997;SDS011;3539;47.982;12.238;2022-09-13T11:04:02;1.45;;;1.35;;
6997;SDS011;3539;47.982;12.238;2022-09-13T11:06:47;2.30;;;1.10;;
6997;SDS011;3539;47.982;12.238;2022-09-13T11:09:18;3.30;;;1.17;;
6997;SDS011;3539;47.982;12.238;2022-09-13T11:11:50;1.30;;;1.20;;
6997;SDS011;3539;47.982;12.238;2022-09-13T11:14:30;1.05;;;1.00;;
6997;SDS011;3539;47.982;12.238;2022-09-13T11:17:07;1.90;;;1.10;;
6997;SDS011;3539;47.982;12.238;2022-09-13T11:22:44;1.38;;;1.23;;
6997;SDS011;3539;47.982;12.238;2022-09-13T11:28:10;1.33;;;1.10;;
6997;SDS011;3539;47.982;12.238;2022-09-13T11:30:47;1.25;;;1.15;;
6997;SDS011;3539;47.982;12.238;2022-09-13T11:33:30;2.17;;;1.20;;
6997;SDS011;3539;47.982;12.238;2022-09-13T11:39:19;0.90;;;0.90;;
6997;SDS011;3539;47.982;12.238;2022-09-13T11:41:53;1.20;;;1.10;;
6997;SDS011;3539;47.982;12.238;2022-09-13T11:44:30;1.23;;;1.13;;
6997;SDS011;3539;47.982;12.238;2022-09-13T11:47:25;1.50;;;1.00;;
6997;SDS011;3539;47.982;12.238;2022-09-13T11:50:20;1.75;;;1.10;;
6997;SDS011;3539;47.982;12.238;2022-09-13T11:52:54;1.77;;;1.30;;
6997;SDS011;3539;47.982;12.238;2022-09-13T11:55:45;1.40;;;1.10;;
6997;SDS011;3539;47.982;12.238;2022-09-13T12:01:15;2.08;;;1.10;;
6997;SDS011;3539;47.982;12.238;2022-09-13T12:04:03;1.55;;;1.00;;
6997;SDS011;3539;47.982;12.238;2022-09-13T12:06:35;1.20;;;1.00;;
6997;SDS011;3539;47.982;12.238;2022-09-13T12:09:04;1.27;;;1.10;;
6997;SDS011;3539;47.982;12.238;2022-09-13T12:11:51;1.10;;;1.00;;
6997;SDS011;3539;47.982;12.238;2022-09-13T12:14:21;2.50;;;1.50;;
6997;SDS011;3539;47.982;12.238;2022-09-13T12:16:53;3.53;;;1.20;;
6997;SDS011;3539;47.982;12.238;2022-09-13T12:19:25;1.92;;;1.10;;
6997;SDS011;3539;47.982;12.238;2022-09-13T12:21:56;2.08;;;1.00;;
6997;SDS011;3539;47.982;12.238;2022-09-13T12:24:33;4.78;;;1.20;;
6997;SDS011;3539;47.982;12.238;2022-09-13T12:27:03;1.40;;;1.13;;
6997;SDS011;3539;47.982;12.238;2022-09-13T12:29:35;2.33;;;1.30;;
6997;SDS011;3539;47.982;12.238;2022-09-13T12:32:08;2.20;;;1.08;;
6997;SDS011;3539;47.982;12.238;2022-09-13T12:34:39;2.75;;;1.50;;
6997;SDS011;3539;47.982;12.238;2022-09-13T12:37:14;1.88;;;1.30;;
6997;SDS011;3539;47.982;12.238;2022-09-13T12:42:59;2.00;;;1.10;;
6997;SDS011;3539;47.982;12.238;2022-09-13T12:45:36;1.23;;;1.00;;
6997;SDS011;3539;47.982;12.238;2022-09-13T12:48:35;3.47;;;1.25;;
6997;SDS011;3539;47.982;12.238;2022-09-13T12:51:16;2.08;;;1.02;;
6997;SDS011;3539;47.982;12.238;2022-09-13T12:53:55;1.30;;;1.20;;
6997;SDS011;3539;47.982;12.238;2022-09-13T12:56:35;1.40;;;1.02;;
6997;SDS011;3539;47.982;12.238;2022-09-13T12:59:12;1.27;;;0.80;;
6997;SDS011;3539;47.982;12.238;2022-09-13T13:01:48;1.20;;;1.10;;
6997;SDS011;3539;47.982;12.238;2022-09-13T13:04:16;0.95;;;0.95;;
6997;SDS011;3539;47.982;12.238;2022-09-13T13:06:50;1.67;;;1.20;;
6997;SDS011;3539;47.982;12.238;2022-09-13T13:09:21;2.80;;;1.10;;
6997;SDS011;3539;47.982;12.238;2022-09-13T13:11:54;1.48;;;1.38;;
6997;SDS011;3539;47.982;12.238;2022-09-13T13:17:33;1.25;;;1.00;;
6997;SDS011;3539;47.982;12.238;2022-09-13T13:23:15;1.50;;;1.17;;
6997;SDS011;3539;47.982;12.238;2022-09-13T13:25:55;1.88;;;1.23;;
6997;SDS011;3539;47.982;12.238;2022-09-13T13:31:40;1.67;;;1.20;;
6997;SDS011;3539;47.982;12.238;2022-09-13T13:40:18;1.43;;;1.00;;
6997;SDS011;3539;47.982;12.238;2022-09-13T13:42:49;2.00;;;1.10;;
6997;SDS011;3539;47.982;12.238;2022-09-13T13:45:19;1.47;;;1.13;;
6997;SDS011;3539;47.982;12.238;2022-09-13T13:47:52;2.23;;;1.33;;
6997;SDS011;3539;47.982;12.238;2022-09-13T13:50:33;3.55;;;1.40;;
6997;SDS011;3539;47.982;12.238;2022-09-13T13:53:13;2.40;;;1.20;;
6997;SDS011;3539;47.982;12.238;2022-09-13T13:55:48;1.88;;;1.27;;
6997;SDS011;3539;47.982;12.238;2022-09-13T13:58:36;2.50;;;1.10;;
6997;SDS011;3539;47.982;12.238;2022-09-13T14:01:13;1.23;;;1.13;;
6997;SDS011;3539;47.982;12.238;2022-09-13T14:03:51;1.25;;;1.05;;
6997;SDS011;3539;47.982;12.238;2022-09-13T14:06:27;1.20;;;1.10;;
6997;SDS011;3539;47.982;12.238;2022-09-13T14:09:00;1.40;;;1.10;;
6997;SDS011;3539;47.982;12.238;2022-09-13T14:11:35;1.58;;;1.20;;
6997;SDS011;3539;47.982;12.238;2022-09-13T14:14:14;4.87;;;2.40;;
6997;SDS011;3539;47.982;12.238;2022-09-13T14:16:53;17.70;;;6.18;;
6997;SDS011;3539;47.982;12.238;2022-09-13T14:19:27;2.45;;;1.30;;
6997;SDS011;3539;47.982;12.238;2022-09-13T14:24:47;6.25;;;2.78;;
6997;SDS011;3539;47.982;12.238;2022-09-13T14:27:18;2.13;;;1.10;;
6997;SDS011;3539;47.982;12.238;2022-09-13T14:29:47;1.30;;;1.20;;
6997;SDS011;3539;47.982;12.238;2022-09-13T14:32:15;2.60;;;1.35;;
6997;SDS011;3539;47.982;12.238;2022-09-13T14:34:52;2.30;;;1.20;;
6997;SDS011;3539;47.982;12.238;2022-09-13T14:37:25;1.20;;;1.10;;
6997;SDS011;3539;47.982;12.238;2022-09-13T14:39:58;1.23;;;1.13;;
6997;SDS011;3539;47.982;12.238;2022-09-13T14:42:36;3.42;;;1.17;;
6997;SDS011;3539;47.982;12.238;2022-09-13T14:45:04;4.70;;;2.17;;
6997;SDS011;3539;47.982;12.238;2022-09-13T14:47:31;1.40;;;1.30;;
6997;SDS011;3539;47.982;12.238;2022-09-13T14:50:01;1.92;;;1.40;;
6997;SDS011;3539;47.982;12.238;2022-09-13T14:52:30;1.75;;;1.30;;
6997;SDS011;3539;47.982;12.238;2022-09-13T14:55:02;1.05;;;1.02;;
6997;SDS011;3539;47.982;12.238;2022-09-13T14:57:37;2.22;;;1.20;;
6997;SDS011;3539;47.982;12.238;2022-09-13T15:00:14;1.95;;;1.30;;
6997;SDS011;3539;47.982;12.238;2022-09-13T15:02:45;3.53;;;1.33;;
6997;SDS011;3539;47.982;12.238;2022-09-13T15:05:15;2.20;;;1.20;;
6997;SDS011;3539;47.982;12.238;2022-09-13T15:07:42;1.33;;;1.10;;
6997;SDS011;3539;47.982;12.238;2022-09-13T15:10:18;1.50;;;1.27;;
6997;SDS011;3539;47.982;12.238;2022-09-13T15:12:50;1.10;;;1.00;;
6997;SDS011;3539;47.982;12.238;2022-09-13T15:15:20;1.30;;;1.10;;
6997;SDS011;3539;47.982;12.238;2022-09-13T15:18:02;2.97;;;1.20;;
6997;SDS011;3539;47.982;12.238;2022-09-13T15:20:42;1.42;;;1.20;;
6997;SDS011;3539;47.982;12.238;2022-09-13T15:23:12;2.00;;;1.20;;
6997;SDS011;3539;47.982;12.238;2022-09-13T15:25:40;2.15;;;1.27;;
6997;SDS011;3539;47.982;12.238;2022-09-13T15:28:18;1.52;;;1.35;;
6997;SDS011;3539;47.982;12.238;2022-09-13T15:30:47;2.87;;;1.37;;
6997;SDS011;3539;47.982;12.238;2022-09-13T15:33:17;2.07;;;1.30;;
6997;SDS011;3539;47.982;12.238;2022-09-13T15:35:48;12.55;;;1.80;;
6997;SDS011;3539;47.982;12.238;2022-09-13T15:38:16;2.80;;;1.40;;
6997;SDS011;3539;47.982;12.238;2022-09-13T15:40:46;2.33;;;1.20;;
6997;SDS011;3539;47.982;12.238;2022-09-13T15:43:23;1.30;;;1.20;;
6997;SDS011;3539;47.982;12.238;2022-09-13T15:45:50;4.10;;;1.37;;
6997;SDS011;3539;47.982;12.238;2022-09-13T15:48:21;3.25;;;1.40;;
6997;SDS011;3539;47.982;12.238;2022-09-13T15:51:03;1.45;;;1.35;;
6997;SDS011;3539;47.982;12.238;2022-09-13T15:53:32;1.47;;;1.37;;
6997;SDS011;3539;47.982;12.238;2022-09-13T15:55:59;3.37;;;1.43;;
6997;SDS011;3539;47.982;12.238;2022-09-13T15:58:28;1.60;;;1.30;;
6997;SDS011;3539;47.982;12.238;2022-09-13T16:00:55;1.20;;;1.10;;
6997;SDS011;3539;47.982;12.238;2022-09-13T16:03:24;2.23;;;1.50;;